Time;durP1;ratioP1;P1;durP2;ratioP2;P2;SDS_P1;SDS_P2;PMS_P1;PMS_P2;Temp;Humidity;BMP_temperature;BMP_pressure;BME280_temperature;BME280_humidity;BME280_pressure;Samples;Min_cycle;Max_cycle;Signal;HPM_P1;HPM_P2
2023/06/22 00:01:00;;;;;;;13.60;9.80;;;;;;;22.20;100.00;100615.56;4971298;28;20022;-68
2023/06/22 00:03:26;;;;;;;10.70;9.30;;;;;;;22.03;100.00;100649.88;4971425;28;20049;-68
2023/06/22 00:05:52;;;;;;;12.25;10.68;;;;;;;21.94;100.00;100635.94;4971140;28;20477;-65
2023/06/22 00:08:18;;;;;;;11.40;9.85;;;;;;;22.04;100.00;100668.25;4971022;28;20070;-65
2023/06/22 00:10:45;;;;;;;10.68;8.85;;;;;;;22.00;100.00;100656.03;4971117;28;20027;-68
2023/06/22 00:13:11;;;;;;;14.40;9.88;;;;;;;22.09;100.00;100669.13;4970429;28;20038;-69
2023/06/22 00:15:38;;;;;;;12.25;10.10;;;;;;;22.05;100.00;100675.28;4971200;28;20027;-69
2023/06/22 00:18:05;;;;;;;11.70;10.18;;;;;;;22.04;100.00;100681.41;4970690;28;20054;-68
2023/06/22 00:20:30;;;;;;;14.85;11.40;;;;;;;21.94;100.00;100656.06;4973204;28;20035;-69
2023/06/22 00:22:57;;;;;;;11.45;10.25;;;;;;;22.14;100.00;100682.22;4975219;28;20474;-69
2023/06/22 00:25:23;;;;;;;12.88;10.68;;;;;;;22.20;100.00;100683.94;4974735;28;20093;-68
2023/06/22 00:27:50;;;;;;;12.40;10.90;;;;;;;22.12;100.00;100671.72;4974587;28;20027;-70
2023/06/22 00:30:16;;;;;;;13.88;10.25;;;;;;;22.23;100.00;100669.00;4974951;28;20409;-68
2023/06/22 00:32:43;;;;;;;12.02;10.65;;;;;;;22.37;100.00;100684.72;4956436;28;20042;-68
2023/06/22 00:35:09;;;;;;;11.02;9.93;;;;;;;22.43;100.00;100684.66;4974909;28;20035;-69
2023/06/22 00:37:35;;;;;;;14.02;10.90;;;;;;;22.50;100.00;100668.81;4974556;28;20497;-68
2023/06/22 00:40:02;;;;;;;12.45;11.05;;;;;;;22.55;100.00;100675.75;4974455;28;20034;-66
2023/06/22 00:42:28;;;;;;;11.85;10.65;;;;;;;22.50;100.00;100672.31;4974108;28;20022;-68
2023/06/22 00:44:53;;;;;;;14.55;11.30;;;;;;;22.51;100.00;100673.19;4974823;28;20031;-68
2023/06/22 00:47:19;;;;;;;11.15;9.95;;;;;;;22.58;100.00;100677.50;4955910;28;20057;-68
2023/06/22 00:49:46;;;;;;;13.20;9.50;;;;;;;22.33;100.00;100637.34;4974458;28;20031;-66
2023/06/22 00:52:13;;;;;;;15.18;10.52;;;;;;;22.54;100.00;100673.16;4974689;28;20026;-68
2023/06/22 00:54:45;;;;;;;11.32;10.13;;;;;;;22.55;100.00;100665.25;4974061;28;20110;-69
2023/06/22 00:57:15;;;;;;;11.48;10.20;;;;;;;22.64;100.00;100676.56;4974351;28;20027;-67
2023/06/22 00:59:43;;;;;;;11.52;10.25;;;;;;;22.65;100.00;100673.91;4974511;28;20113;-69
2023/06/22 01:02:09;;;;;;;11.88;9.80;;;;;;;22.71;100.00;100667.75;4974371;28;20038;-70
2023/06/22 01:04:35;;;;;;;13.07;9.93;;;;;;;22.75;100.00;100670.34;4974157;28;20031;-65
2023/06/22 01:07:25;;;;;;;14.30;11.02;;;;;;;22.78;100.00;100670.28;4974160;28;20088;-65
2023/06/22 01:10:09;;;;;;;13.10;10.25;;;;;;;22.78;100.00;100670.28;4974256;28;20027;-70
2023/06/22 01:12:58;;;;;;;13.82;11.10;;;;;;;22.80;100.00;100672.88;4974037;28;20105;-66
2023/06/22 01:15:30;;;;;;;12.85;10.43;;;;;;;22.86;100.00;100674.59;4963184;28;20090;-73
2023/06/22 01:17:58;;;;;;;11.95;9.80;;;;;;;22.85;100.00;100681.59;4973872;28;20065;-66
2023/06/22 01:20:27;;;;;;;12.93;10.48;;;;;;;22.81;100.00;100684.31;4971277;28;20030;-71
2023/06/22 01:23:10;;;;;;;12.10;10.27;;;;;;;22.79;100.00;100679.03;4973635;28;20038;-66
2023/06/22 01:26:18;;;;;;;13.20;10.68;;;;;;;22.58;100.00;100678.38;4973501;28;20031;-66
2023/06/22 01:28:54;;;;;;;16.75;10.38;;;;;;;22.46;100.00;100670.59;4973606;28;20015;-70
2023/06/22 01:31:23;;;;;;;12.70;10.38;;;;;;;22.27;100.00;100639.16;4973183;28;20038;-69
2023/06/22 01:33:55;;;;;;;12.43;10.15;;;;;;;22.42;100.00;100659.22;4973591;28;20645;-66
2023/06/22 01:36:22;;;;;;;14.75;10.50;;;;;;;22.52;100.00;100662.66;4973410;28;20170;-69
2023/06/22 01:38:47;;;;;;;12.00;10.60;;;;;;;22.57;100.00;100663.47;4973141;28;20029;-69
2023/06/22 01:41:14;;;;;;;11.00;9.88;;;;;;;22.47;100.00;100656.56;4973391;28;20471;-67
2023/06/22 01:43:40;;;;;;;11.93;10.30;;;;;;;22.45;100.00;100660.97;4973461;28;20011;-68
2023/06/22 01:46:06;;;;;;;11.48;10.27;;;;;;;22.49;100.00;100652.13;4973104;28;20119;-69
2023/06/22 01:48:32;;;;;;;11.75;10.55;;;;;;;22.53;100.00;100653.00;4973434;28;20097;-69
2023/06/22 01:50:57;;;;;;;12.23;10.10;;;;;;;22.49;100.00;100659.16;4973065;28;20066;-66
2023/06/22 01:53:24;;;;;;;11.90;10.55;;;;;;;22.41;100.00;100646.09;4973013;28;20026;-68
2023/06/22 01:55:49;;;;;;;12.02;10.40;;;;;;;22.22;100.00;100624.28;4973287;28;20521;-70
2023/06/22 01:58:16;;;;;;;11.68;10.48;;;;;;;22.25;100.00;100661.09;4973259;28;20078;-69
2023/06/22 02:00:50;;;;;;;14.13;10.43;;;;;;;22.20;100.00;100662.91;4973197;28;20035;-69
2023/06/22 02:03:26;;;;;;;12.48;10.65;;;;;;;21.98;100.00;100634.13;4973207;28;20140;-67
2023/06/22 02:06:23;;;;;;;13.02;10.07;;;;;;;22.12;100.00;100669.09;4973117;28;20504;-68
2023/06/22 02:08:53;;;;;;;12.05;10.23;;;;;;;22.11;100.00;100653.34;4913094;29;20507;-69
2023/06/22 02:11:21;;;;;;;11.13;10.00;;;;;;;22.26;100.00;100666.34;4913294;29;20047;-67
2023/06/22 02:13:48;;;;;;;13.00;10.30;;;;;;;22.30;100.00;100669.81;4913104;29;20517;-69
2023/06/22 02:16:15;;;;;;;13.23;9.70;;;;;;;22.29;100.00;100654.91;4912755;29;20151;-66
2023/06/22 02:18:51;;;;;;;13.57;9.82;;;;;;;22.23;100.00;100661.13;4912977;29;20082;-68
2023/06/22 02:21:21;;;;;;;14.10;10.65;;;;;;;22.10;100.00;100656.84;4912733;29;20062;-70
2023/06/22 02:23:47;;;;;;;13.50;10.68;;;;;;;22.00;100.00;100653.41;4866987;29;20044;-69
2023/06/22 02:26:12;;;;;;;17.50;10.13;;;;;;;22.06;100.00;100666.50;4912615;29;20550;-67
2023/06/22 02:28:38;;;;;;;14.23;10.70;;;;;;;22.10;100.00;100665.59;4912609;29;20115;-69
2023/06/22 02:31:03;;;;;;;14.60;10.15;;;;;;;22.03;100.00;100666.53;4912999;29;20059;-69
2023/06/22 02:33:29;;;;;;;12.27;9.88;;;;;;;21.96;100.00;100672.72;4913001;29;20075;-71
2023/06/22 02:35:55;;;;;;;14.35;9.73;;;;;;;21.85;100.00;100680.66;4912720;29;20111;-68
2023/06/22 02:38:20;;;;;;;14.73;10.63;;;;;;;21.89;100.00;100690.28;4912736;29;20103;-69
2023/06/22 02:40:46;;;;;;;13.40;10.90;;;;;;;21.99;100.00;100685.81;4912715;29;20032;-69
2023/06/22 02:43:12;;;;;;;13.45;10.85;;;;;;;22.01;100.00;100688.44;4911688;29;20095;-69
2023/06/22 02:45:38;;;;;;;14.55;10.32;;;;;;;21.74;100.00;100662.31;4940030;28;20081;-66
2023/06/22 02:48:04;;;;;;;14.60;10.95;;;;;;;21.46;100.00;100653.72;4972257;28;20058;-68
2023/06/22 02:50:30;;;;;;;15.60;11.82;;;;;;;21.48;100.00;100684.34;4972200;28;20058;-70
2023/06/22 02:52:55;;;;;;;15.25;11.35;;;;;;;21.38;100.00;100687.88;4972434;28;20027;-68
2023/06/22 02:55:21;;;;;;;13.40;11.85;;;;;;;21.33;100.00;100680.03;4972086;28;20540;-71
2023/06/22 02:57:47;;;;;;;15.57;11.63;;;;;;;21.23;100.00;100688.81;4971859;28;20505;-66
2023/06/22 03:00:17;;;;;;;13.35;10.52;;;;;;;20.84;100.00;100691.53;4971880;28;20022;-69
2023/06/22 03:02:47;;;;;;;14.38;10.90;;;;;;;20.95;100.00;100691.53;4972282;28;20034;-70
2023/06/22 03:05:14;;;;;;;15.48;11.32;;;;;;;21.03;100.00;100680.13;4972372;28;20058;-68
2023/06/22 03:07:40;;;;;;;13.30;10.65;;;;;;;21.10;100.00;100689.75;4972180;28;20154;-66
2023/06/22 03:10:09;;;;;;;14.73;11.57;;;;;;;21.15;100.00;100695.84;4971608;28;20018;-69
2023/06/22 03:12:34;;;;;;;12.00;10.77;;;;;;;20.99;100.00;100653.88;4971849;28;20488;-67
2023/06/22 03:15:00;;;;;;;15.45;10.90;;;;;;;21.23;100.00;100687.94;4971996;28;20030;-69
2023/06/22 03:17:25;;;;;;;14.23;10.75;;;;;;;21.24;100.00;100689.69;4972129;28;20055;-69
2023/06/22 03:19:50;;;;;;;11.88;10.13;;;;;;;21.24;100.00;100689.69;4971883;28;20441;-71
2023/06/22 03:22:16;;;;;;;12.27;10.25;;;;;;;21.19;100.00;100697.59;4971914;28;20038;-69
2023/06/22 03:24:41;;;;;;;13.88;10.93;;;;;;;21.15;100.00;100688.84;4971540;28;20042;-70
2023/06/22 03:27:07;;;;;;;15.70;11.52;;;;;;;21.12;100.00;100698.47;4971812;28;20154;-69
2023/06/22 03:29:32;;;;;;;15.25;12.25;;;;;;;21.01;100.00;100702.00;4971573;28;20523;-70
2023/06/22 03:31:58;;;;;;;14.65;11.75;;;;;;;20.95;100.00;100698.53;4971739;28;20485;-67
2023/06/22 03:34:23;;;;;;;16.33;11.32;;;;;;;20.98;100.00;100704.63;4971511;28;20023;-71
2023/06/22 03:36:48;;;;;;;12.95;11.45;;;;;;;20.85;100.00;100689.81;4971602;28;20489;-70
2023/06/22 03:39:14;;;;;;;13.65;11.85;;;;;;;20.72;100.00;100691.56;4971055;28;20033;-69
2023/06/22 03:41:39;;;;;;;15.93;11.70;;;;;;;20.55;100.00;100709.03;4971351;28;20113;-67
2023/06/22 03:44:04;;;;;;;12.98;11.57;;;;;;;20.48;100.00;100709.03;4971611;28;20113;-69
2023/06/22 03:46:30;;;;;;;15.98;11.35;;;;;;;20.41;100.00;100702.06;4971590;28;20474;-65
2023/06/22 03:48:55;;;;;;;14.35;11.52;;;;;;;20.41;100.00;100714.28;4971113;28;20037;-65
2023/06/22 03:51:21;;;;;;;14.18;12.27;;;;;;;20.21;100.00;100688.91;4971583;28;20037;-69
2023/06/22 03:53:47;;;;;;;12.77;11.43;;;;;;;20.34;100.00;100716.03;4971458;28;20089;-67
2023/06/22 03:56:19;;;;;;;16.15;13.23;;;;;;;20.27;100.00;100706.41;4971030;28;20050;-66
2023/06/22 03:58:45;;;;;;;21.52;15.13;;;;;;;20.23;100.00;100702.91;4984231;28;20400;-69
2023/06/22 04:01:11;;;;;;;17.27;14.57;;;;;;;20.28;100.00;100723.91;4971978;28;20114;-66
2023/06/22 04:03:37;;;;;;;19.98;15.15;;;;;;;20.25;100.00;100721.25;4971086;28;20027;-65
2023/06/22 04:06:03;;;;;;;20.10;15.35;;;;;;;20.33;100.00;100724.78;4971034;28;20041;-68
2023/06/22 04:08:28;;;;;;;16.40;14.57;;;;;;;20.34;100.00;100706.41;4970648;28;20031;-69
2023/06/22 04:10:53;;;;;;;17.52;15.38;;;;;;;20.50;100.00;100711.69;4971055;28;20031;-69
2023/06/22 04:13:19;;;;;;;19.65;15.55;;;;;;;20.57;100.00;100725.66;4971085;28;20622;-69
2023/06/22 04:15:45;;;;;;;18.00;15.43;;;;;;;20.62;100.00;100698.56;4936938;28;20130;-71
2023/06/22 04:18:10;;;;;;;19.15;16.35;;;;;;;20.83;100.00;100720.41;4971475;28;20059;-72
2023/06/22 04:20:36;;;;;;;20.92;16.83;;;;;;;20.77;100.00;100720.41;4970950;28;20050;-69
2023/06/22 04:23:01;;;;;;;20.67;17.70;;;;;;;20.81;100.00;100725.66;4953656;28;20038;-69
2023/06/22 04:25:27;;;;;;;20.42;18.33;;;;;;;20.87;100.00;100726.53;4970796;28;20033;-67
2023/06/22 04:27:53;;;;;;;22.27;18.77;;;;;;;20.73;100.00;100693.31;4970729;28;20031;-67
2023/06/22 04:30:18;;;;;;;19.58;17.42;;;;;;;20.98;100.00;100727.38;4971162;28;20038;-70
2023/06/22 04:32:44;;;;;;;22.67;17.10;;;;;;;21.15;100.00;100728.22;4970783;28;20027;-67
2023/06/22 04:35:10;;;;;;;17.73;15.85;;;;;;;21.29;100.00;100724.69;4971342;28;20038;-66
2023/06/22 04:37:36;;;;;;;18.48;16.48;;;;;;;21.29;100.00;100716.81;4970623;28;20047;-69
2023/06/22 04:40:03;;;;;;;19.35;15.98;;;;;;;21.34;100.00;100728.16;4971031;28;20035;-67
2023/06/22 04:42:30;;;;;;;19.02;16.38;;;;;;;21.27;100.00;100727.31;4971046;28;20035;-69
2023/06/22 04:44:55;;;;;;;20.58;16.40;;;;;;;21.26;100.00;100735.19;4970973;28;20151;-66
2023/06/22 04:47:21;;;;;;;18.63;16.00;;;;;;;21.02;100.00;100734.38;4970689;28;20502;-69
2023/06/22 04:49:46;;;;;;;18.10;15.88;;;;;;;21.06;100.00;100727.38;4971055;28;20466;-69
2023/06/22 04:52:13;;;;;;;18.65;16.38;;;;;;;21.18;100.00;100740.47;4970528;28;20023;-69
2023/06/22 04:54:47;;;;;;;22.50;16.15;;;;;;;21.33;100.00;100734.28;4971006;28;20038;-67
2023/06/22 04:57:14;;;;;;;17.75;15.55;;;;;;;21.37;100.00;100735.16;4970738;28;20034;-71
2023/06/22 04:59:41;;;;;;;18.77;16.77;;;;;;;21.46;100.00;100732.53;4970915;28;20035;-69
2023/06/22 05:02:07;;;;;;;21.35;17.45;;;;;;;21.59;100.00;100751.75;4971046;28;20058;-68
2023/06/22 05:04:35;;;;;;;22.10;17.25;;;;;;;21.50;100.00;100735.09;4970780;28;20054;-69
2023/06/22 05:07:02;;;;;;;24.30;18.88;;;;;;;21.61;100.00;100748.25;4972730;28;20031;-67
2023/06/22 05:09:28;;;;;;;22.10;17.85;;;;;;;21.73;100.00;100741.19;4974248;28;20034;-70
2023/06/22 05:11:53;;;;;;;22.90;17.98;;;;;;;21.88;100.00;100742.84;4974138;28;20041;-68
2023/06/22 05:14:19;;;;;;;21.67;16.73;;;;;;;21.98;100.00;100749.78;4974104;28;20027;-70
2023/06/22 05:16:45;;;;;;;19.13;17.13;;;;;;;22.08;100.00;100748.88;4974111;28;20412;-68
2023/06/22 05:19:12;;;;;;;19.05;17.05;;;;;;;21.95;100.00;100723.53;4974325;28;20050;-68
2023/06/22 05:21:38;;;;;;;22.58;18.92;;;;;;;21.99;100.00;100714.75;4973483;28;20034;-66
2023/06/22 05:24:04;;;;;;;19.83;17.83;;;;;;;22.25;100.00;100747.88;4973961;28;20054;-70
2023/06/22 05:26:30;;;;;;;24.20;18.95;;;;;;;22.08;100.00;100711.19;4974104;28;20496;-69
2023/06/22 05:28:57;;;;;;;22.17;19.27;;;;;;;22.24;100.00;100743.50;4974099;28;20077;-69
2023/06/22 05:31:22;;;;;;;23.50;17.65;;;;;;;22.38;100.00;100749.59;4973732;28;20026;-65
2023/06/22 05:33:49;;;;;;;19.13;17.13;;;;;;;22.50;100.00;100745.97;4973423;28;20551;-69
2023/06/22 05:36:15;;;;;;;19.25;17.33;;;;;;;22.65;100.00;100746.75;4973545;28;20038;-70
2023/06/22 05:38:41;;;;;;;19.10;17.17;;;;;;;22.60;100.00;100739.78;4973479;28;20031;-67
2023/06/22 05:41:07;;;;;;;17.02;15.32;;;;;;;22.73;100.00;100744.91;4973786;28;20033;-68
2023/06/22 05:43:33;;;;;;;20.70;16.50;;;;;;;22.82;100.00;100742.19;4973787;28;20030;-65
2023/06/22 05:46:00;;;;;;;22.73;15.82;;;;;;;22.76;100.00;100719.44;4973591;28;20400;-71
2023/06/22 05:48:26;;;;;;;15.15;12.98;;;;;;;22.89;100.00;100735.09;4973150;28;20026;-69
2023/06/22 05:50:51;;;;;;;15.30;12.52;;;;;;;22.99;100.00;100730.63;4973524;28;20027;-66
2023/06/22 05:53:17;;;;;;;13.60;12.07;;;;;;;23.22;100.00;100741.81;4973367;28;20034;-68
2023/06/22 05:55:42;;;;;;;14.95;12.82;;;;;;;23.34;100.00;100745.19;4973307;28;20496;-66
2023/06/22 05:58:08;;;;;;;15.20;12.80;;;;;;;23.26;100.00;100738.28;4973096;28;20058;-72
2023/06/22 06:00:35;;;;;;;16.85;13.45;;;;;;;23.27;100.00;100737.34;4973183;28;20037;-69
2023/06/22 06:03:03;;;;;;;15.13;12.20;;;;;;;23.34;100.00;100726.75;4973232;28;20103;-66
2023/06/22 06:05:30;;;;;;;16.57;13.80;;;;;;;23.49;100.00;100734.50;4973421;28;20026;-66
2023/06/22 06:07:55;;;;;;;13.40;11.30;;;;;;;23.58;99.03;100742.25;4973074;28;20109;-66
2023/06/22 06:10:21;;;;;;;13.63;11.63;;;;;;;23.68;97.62;100744.81;4973067;28;20106;-66
2023/06/22 06:12:46;;;;;;;14.20;12.25;;;;;;;23.74;97.32;100742.94;4973100;28;20062;-72
2023/06/22 06:15:11;;;;;;;12.90;11.45;;;;;;;23.84;96.48;100748.97;4972955;28;20034;-69
2023/06/22 06:17:46;;;;;;;15.95;11.68;;;;;;;23.85;95.97;100742.81;4972227;28;20488;-72
2023/06/22 06:20:12;;;;;;;13.68;12.27;;;;;;;23.95;97.18;100737.44;4972975;28;20027;-69
2023/06/22 06:22:37;;;;;;;14.20;11.73;;;;;;;23.93;97.75;100711.09;4972716;28;20504;-69
2023/06/22 06:25:02;;;;;;;12.55;11.07;;;;;;;24.10;95.38;100728.41;4973063;28;20030;-69
2023/06/22 06:27:29;;;;;;;14.27;12.25;;;;;;;24.21;96.98;100755.50;4972775;28;20077;-68
2023/06/22 06:29:54;;;;;;;14.40;12.90;;;;;;;24.18;99.88;100755.56;4972786;28;20027;-65
2023/06/22 06:32:20;;;;;;;16.20;13.65;;;;;;;24.27;100.00;100751.91;4972005;28;20038;-66
2023/06/22 06:34:45;;;;;;;14.77;13.20;;;;;;;24.25;100.00;100746.66;4973118;28;20030;-72
2023/06/22 06:37:10;;;;;;;15.13;13.02;;;;;;;24.21;100.00;100739.69;4972607;28;20030;-66
2023/06/22 06:39:36;;;;;;;13.95;12.55;;;;;;;24.27;99.33;100744.00;4972761;28;20512;-67
2023/06/22 06:42:02;;;;;;;13.88;12.05;;;;;;;24.12;96.46;100714.31;4972344;28;20054;-66
2023/06/22 06:44:27;;;;;;;15.07;12.73;;;;;;;24.33;97.64;100743.91;4972232;28;20065;-69
2023/06/22 06:46:54;;;;;;;14.45;12.82;;;;;;;24.49;98.80;100739.25;4972320;28;20035;-66
2023/06/22 06:49:19;;;;;;;12.93;11.55;;;;;;;24.42;98.24;100705.94;4972312;28;20556;-70
2023/06/22 06:51:45;;;;;;;13.18;11.65;;;;;;;24.49;97.26;100740.13;4972014;28;20110;-66
2023/06/22 06:54:10;;;;;;;12.40;11.10;;;;;;;24.45;96.59;100740.19;4972453;28;20027;-69
2023/06/22 06:56:36;;;;;;;13.43;12.00;;;;;;;24.56;95.08;100732.94;4972270;28;20023;-66
2023/06/22 06:59:01;;;;;;;12.82;11.32;;;;;;;24.65;95.00;100739.88;4972118;28;20031;-66
2023/06/22 07:01:27;;;;;;;16.20;11.88;;;;;;;24.78;94.99;100735.28;4971687;28;20034;-69
2023/06/22 07:03:53;;;;;;;12.75;11.45;;;;;;;24.91;92.24;100736.81;4955067;28;20037;-66
2023/06/22 07:06:18;;;;;;;13.93;11.82;;;;;;;25.04;90.99;100738.28;4972138;28;20157;-68
2023/06/22 07:08:44;;;;;;;13.43;12.10;;;;;;;25.07;90.95;100736.50;4972226;28;20117;-65
2023/06/22 07:11:09;;;;;;;13.18;11.43;;;;;;;25.20;90.99;100736.22;4954454;28;20030;-69
2023/06/22 07:13:35;;;;;;;12.63;11.32;;;;;;;25.29;89.92;100732.53;4972030;28;20146;-69
2023/06/22 07:16:00;;;;;;;18.27;11.25;;;;;;;25.33;89.52;100739.50;4971732;28;20405;-66
2023/06/22 07:18:26;;;;;;;14.27;11.50;;;;;;;25.34;91.92;100733.31;4972151;28;20042;-70
2023/06/22 07:20:52;;;;;;;13.10;11.68;;;;;;;25.50;93.82;100733.03;4971675;28;20393;-72
2023/06/22 07:23:17;;;;;;;12.40;10.95;;;;;;;25.64;89.66;100738.88;4972134;28;20029;-68
2023/06/22 07:25:43;;;;;;;11.93;10.63;;;;;;;25.82;87.73;100737.63;4971623;28;20035;-67
2023/06/22 07:28:09;;;;;;;12.80;11.50;;;;;;;25.96;86.37;100747.03;4971686;28;20422;-67
2023/06/22 07:30:34;;;;;;;14.70;11.15;;;;;;;25.99;87.55;100731.97;4971106;28;20093;-70
2023/06/22 07:33:03;;;;;;;11.63;10.43;;;;;;;26.16;85.80;100738.66;4971651;28;20027;-66
2023/06/22 07:35:32;;;;;;;;;;;;;;;26.29;88.21;100739.22;4971839;28;20034;-69
2023/06/22 07:37:57;;;;;;;15.57;11.10;;;;;;;26.32;86.01;100733.88;4971589;28;19921;-70
2023/06/22 07:40:23;;;;;;;12.05;10.70;;;;;;;26.49;82.57;100744.03;4971813;28;20026;-69
2023/06/22 07:42:48;;;;;;;12.55;11.25;;;;;;;26.58;86.61;100743.81;4971663;28;20089;-66
2023/06/22 07:45:14;;;;;;;12.80;11.35;;;;;;;26.70;84.91;100749.69;4971052;28;20082;-66
2023/06/22 07:47:39;;;;;;;12.77;10.85;;;;;;;26.78;85.56;100747.75;4971463;28;20031;-68
2023/06/22 07:50:05;;;;;;;13.70;10.75;;;;;;;26.93;80.91;100747.34;4971331;28;20382;-70
2023/06/22 07:52:31;;;;;;;13.30;10.93;;;;;;;26.85;83.06;100722.84;4971693;28;20018;-69
2023/06/22 07:54:57;;;;;;;13.15;11.45;;;;;;;27.06;86.42;100744.38;4971368;28;20105;-72
2023/06/22 07:57:22;;;;;;;12.68;11.02;;;;;;;27.08;86.96;100746.06;4971411;28;20026;-68
2023/06/22 07:59:48;;;;;;;12.73;11.43;;;;;;;27.06;85.00;100713.44;4970921;28;20386;-68
2023/06/22 08:02:13;;;;;;;12.38;11.10;;;;;;;27.38;83.22;100742.63;4971230;28;20477;-69
2023/06/22 08:04:39;;;;;;;13.88;11.05;;;;;;;27.43;82.92;100732.78;4970833;28;20029;-69
2023/06/22 08:07:05;;;;;;;12.75;11.45;;;;;;;27.51;79.82;100735.19;4971413;28;20062;-71
2023/06/22 08:09:32;;;;;;;12.60;11.30;;;;;;;27.63;78.25;100747.19;4936726;28;20042;-68
2023/06/22 08:11:58;;;;;;;12.23;10.93;;;;;;;27.46;79.35;100703.50;4973191;28;20121;-68
2023/06/22 08:14:25;;;;;;;12.40;10.48;;;;;;;27.65;76.33;100730.31;4953325;28;20074;-68
2023/06/22 08:16:51;;;;;;;13.68;11.10;;;;;;;27.73;78.63;100741.59;4971283;28;20093;-69
2023/06/22 08:19:16;;;;;;;14.75;11.07;;;;;;;27.83;76.69;100738.66;4971196;28;20023;-75
2023/06/22 08:21:42;;;;;;;16.02;11.95;;;;;;;27.73;76.35;100704.44;4936842;28;20109;-68
2023/06/22 08:24:08;;;;;;;16.42;11.77;;;;;;;27.83;76.74;100701.53;4970705;28;20030;-68
2023/06/22 08:26:36;;;;;;;16.25;12.30;;;;;;;27.88;75.17;100695.13;4970799;28;20037;-69
2023/06/22 08:29:02;;;;;;;15.63;11.60;;;;;;;28.12;77.05;100716.53;4970546;28;20034;-69
2023/06/22 08:31:28;;;;;;;17.42;11.95;;;;;;;28.16;74.81;100714.66;4971105;28;20058;-68
2023/06/22 08:33:53;;;;;;;12.15;10.70;;;;;;;28.04;76.73;100692.91;4970909;28;20117;-70
2023/06/22 08:36:19;;;;;;;15.10;11.75;;;;;;;28.04;76.93;100713.28;4970689;28;20438;-67
2023/06/22 08:39:05;;;;;;;16.60;12.27;;;;;;;27.92;76.46;100712.69;4949492;29;20122;-67
2023/06/22 08:41:30;;;;;;;18.13;12.02;;;;;;;27.75;75.14;100688.47;4950677;28;20131;-66
2023/06/22 08:43:57;;;;;;;21.35;12.18;;;;;;;27.89;76.94;100706.63;4953093;29;20142;-68
2023/06/22 08:46:29;;;;;;;25.13;12.40;;;;;;;27.88;76.68;100708.41;4952842;29;20070;-69
2023/06/22 08:48:59;;;;;;;19.52;11.88;;;;;;;27.92;75.04;100714.50;4952859;28;20501;-69
2023/06/22 08:51:24;;;;;;;17.95;11.00;;;;;;;27.84;74.21;100720.03;4952843;29;20037;-69
2023/06/22 08:53:50;;;;;;;24.75;11.98;;;;;;;27.89;72.45;100714.59;4952322;29;20784;-68
2023/06/22 08:56:15;;;;;;;19.80;11.55;;;;;;;28.01;73.63;100718.63;4952593;29;20050;-68
2023/06/22 08:58:40;;;;;;;21.13;12.52;;;;;;;28.05;74.06;100714.97;4952666;29;20096;-69
2023/06/22 09:01:06;;;;;;;14.82;11.43;;;;;;;28.12;71.98;100708.56;4952782;29;20049;-69
2023/06/22 09:03:32;;;;;;;18.48;12.25;;;;;;;28.29;72.27;100717.75;4933131;29;20114;-68
2023/06/22 09:05:58;;;;;;;20.27;11.43;;;;;;;28.42;70.17;100716.44;4933330;29;20497;-68
2023/06/22 09:08:23;;;;;;;17.65;12.15;;;;;;;28.57;71.72;100720.34;4933111;29;20083;-67
2023/06/22 09:10:49;;;;;;;21.05;11.23;;;;;;;28.67;70.79;100704.97;4933161;29;20558;-69
2023/06/22 09:13:14;;;;;;;14.85;11.07;;;;;;;28.78;67.92;100712.63;4933001;29;20087;-68
2023/06/22 09:15:40;;;;;;;15.13;10.90;;;;;;;28.91;68.93;100715.69;4933202;29;20807;-69
2023/06/22 09:18:06;;;;;;;14.57;10.75;;;;;;;29.02;66.62;100708.19;4943038;29;20043;-68
2023/06/22 09:20:31;;;;;;;14.20;10.27;;;;;;;29.06;66.39;100704.53;4933329;29;20351;-68
2023/06/22 09:22:57;;;;;;;14.93;10.18;;;;;;;29.06;65.88;100707.19;4942524;29;20051;-69
2023/06/22 09:25:23;;;;;;;14.05;9.27;;;;;;;29.18;65.65;100698.72;4951925;29;20414;-68
2023/06/22 09:27:48;;;;;;;11.88;9.00;;;;;;;29.09;63.21;100645.06;4951831;29;20043;-68
2023/06/22 09:30:14;;;;;;;12.43;9.20;;;;;;;29.21;62.79;100672.03;4952162;29;20036;-68
2023/06/22 09:32:39;;;;;;;13.07;9.70;;;;;;;29.42;63.80;100695.25;4951836;29;20073;-70
2023/06/22 09:35:06;;;;;;;13.63;9.18;;;;;;;29.32;62.26;100690.28;4968024;28;20066;-69
2023/06/22 09:37:31;;;;;;;10.77;8.75;;;;;;;29.25;61.69;100683.44;4973199;28;20031;-69
2023/06/22 09:39:57;;;;;;;13.07;9.13;;;;;;;29.43;61.40;100689.00;4973505;28;20019;-68
2023/06/22 09:42:22;;;;;;;10.48;8.18;;;;;;;29.59;60.76;100691.94;4973714;28;20023;-68
2023/06/22 09:44:48;;;;;;;13.63;9.07;;;;;;;29.55;62.11;100683.22;4984347;28;20516;-66
2023/06/22 09:47:13;;;;;;;13.40;8.05;;;;;;;29.67;61.78;100674.75;4970180;28;20022;-66
2023/06/22 09:49:39;;;;;;;12.52;7.45;;;;;;;29.93;57.64;100688.81;4969426;28;20043;-68
2023/06/22 09:52:05;;;;;;;14.02;7.45;;;;;;;30.04;56.30;100682.19;4972916;28;20022;-67
2023/06/22 09:54:30;;;;;;;11.15;6.32;;;;;;;30.14;54.13;100673.75;4972701;28;20034;-68
2023/06/22 09:56:56;;;;;;;10.55;6.68;;;;;;;30.30;52.07;100689.09;4973081;28;20022;-69
2023/06/22 09:59:21;;;;;;;8.13;6.30;;;;;;;30.36;55.76;100682.63;4973174;28;20042;-66
2023/06/22 10:01:47;;;;;;;8.80;5.95;;;;;;;30.33;50.66;100688.97;4971905;28;20034;-68
2023/06/22 10:04:12;;;;;;;11.13;5.68;;;;;;;30.52;52.70;100689.09;4971946;28;20034;-67
2023/06/22 10:06:40;;;;;;;10.82;6.13;;;;;;;30.71;55.17;100681.16;4972967;28;20046;-69
2023/06/22 10:09:07;;;;;;;9.38;6.63;;;;;;;30.87;52.13;100684.00;4973042;28;20026;-68
2023/06/22 10:11:34;;;;;;;8.02;5.50;;;;;;;30.95;50.28;100673.84;4954662;28;20074;-68
2023/06/22 10:14:00;;;;;;;8.40;6.32;;;;;;;30.91;49.00;100674.94;4973354;28;20023;-66
2023/06/22 10:16:31;;;;;;;11.13;6.60;;;;;;;31.00;53.04;100672.78;4973383;28;20039;-69
2023/06/22 10:18:56;;;;;;;9.95;6.78;;;;;;;31.19;54.57;100670.16;4972807;28;20039;-67
2023/06/22 10:21:22;;;;;;;11.93;7.25;;;;;;;31.30;56.12;100668.75;4972650;28;20054;-68
2023/06/22 10:23:47;;;;;;;10.30;6.45;;;;;;;31.48;50.53;100662.59;4972903;28;20096;-66
2023/06/22 10:26:13;;;;;;;8.77;6.55;;;;;;;31.66;50.21;100658.22;4972800;28;20027;-66
2023/06/22 10:28:38;;;;;;;10.63;6.90;;;;;;;31.86;52.97;100668.78;4972724;28;20106;-66
2023/06/22 10:31:04;;;;;;;11.00;6.97;;;;;;;31.91;49.08;100666.75;4972467;28;20078;-69
2023/06/22 10:33:29;;;;;;;14.52;6.90;;;;;;;31.95;51.78;100662.13;4972559;28;20038;-69
2023/06/22 10:35:55;;;;;;;7.40;6.63;;;;;;;32.16;51.19;100662.00;4969383;28;20031;-69
2023/06/22 10:38:20;;;;;;;11.32;7.00;;;;;;;32.17;50.54;100634.34;4972374;28;20081;-69
2023/06/22 10:40:46;;;;;;;8.23;6.78;;;;;;;32.46;51.80;100656.03;4972472;28;20435;-66
2023/06/22 10:43:11;;;;;;;7.50;6.10;;;;;;;32.56;46.59;100654.63;4972357;28;20045;-66
2023/06/22 10:45:37;;;;;;;9.23;5.70;;;;;;;32.72;44.62;100642.16;4972620;28;20147;-69
2023/06/22 10:48:02;;;;;;;12.95;6.18;;;;;;;32.86;43.36;100649.50;4972657;28;20026;-66
2023/06/22 10:50:29;;;;;;;8.82;6.07;;;;;;;33.01;43.36;100636.22;4972285;28;20125;-69
2023/06/22 10:52:54;;;;;;;10.20;6.72;;;;;;;32.96;43.49;100614.22;4972290;28;20031;-67
2023/06/22 10:55:20;;;;;;;12.68;7.03;;;;;;;33.12;44.06;100638.31;4972436;28;20026;-69
2023/06/22 10:57:46;;;;;;;11.02;6.93;;;;;;;33.27;44.94;100634.78;4972157;28;20044;-66
2023/06/22 11:00:13;;;;;;;12.68;6.78;;;;;;;33.43;46.69;100634.81;4972157;28;20027;-66
2023/06/22 11:02:39;;;;;;;11.80;7.18;;;;;;;33.35;45.04;100603.13;4954078;28;20074;-69
2023/06/22 11:05:05;;;;;;;17.73;7.65;;;;;;;33.59;44.21;100632.13;4971400;28;20019;-68